Terminal Aerodrome Forecast
Issued by NWS Raleigh/Durham, NC

Home | Current Version | Previous Version | Text Only | Print | Product List | Glossary On
Versions: 1 2 3 4 5 6 7 8 9 10 11 12 13 14 15 16 17 18 19 20 21 22 23 24 25 26 27 28
000
FTUS42 KRAH 241125
TAFFAY
TAF
KFAY 241125Z 2412/2512 VRB03KT P6SM FEW060
      TEMPO 2412/2413 2SM BR SCT004
     FM241300 VRB03KT P6SM SCT020
     FM241700 14005KT P6SM SCT035
      TEMPO 2509/2512 3SM BR BKN005=

USA.gov is the U.S. government's official web portal to all federal, state and local government web resources and services.